sensor_id;sensor_type;location;lat;lon;timestamp;P1;durP1;ratioP1;P2;durP2;ratioP2
38220;SDS011;24023;51.280;7.148;2024-02-26T00:00:18;0.9;;;0.6;;
38220;SDS011;24023;51.280;7.148;2024-02-26T00:05:09;1.8;;;0.6;;
38220;SDS011;24023;51.280;7.148;2024-02-26T00:10:12;1.8;;;0.6;;
38220;SDS011;24023;51.280;7.148;2024-02-26T00:15:11;1.8;;;0.6;;
38220;SDS011;24023;51.280;7.148;2024-02-26T00:20:12;1.5;;;0.6;;
38220;SDS011;24023;51.280;7.148;2024-02-26T00:25:09;1.5;;;0.6;;
38220;SDS011;24023;51.280;7.148;2024-02-26T00:30:13;1.7;;;0.6;;
38220;SDS011;24023;51.280;7.148;2024-02-26T00:35:11;1.7;;;0.6;;
38220;SDS011;24023;51.280;7.148;2024-02-26T00:40:11;1.7;;;0.6;;
38220;SDS011;24023;51.280;7.148;2024-02-26T00:45:13;0.7;;;0.4;;
38220;SDS011;24023;51.280;7.148;2024-02-26T00:50:11;0.7;;;0.4;;
38220;SDS011;24023;51.280;7.148;2024-02-26T00:55:09;0.7;;;0.4;;
38220;SDS011;24023;51.280;7.148;2024-02-26T01:00:17;0.7;;;0.4;;
38220;SDS011;24023;51.280;7.148;2024-02-26T01:05:18;0.6;;;0.4;;
38220;SDS011;24023;51.280;7.148;2024-02-26T01:10:12;0.6;;;0.4;;
38220;SDS011;24023;51.280;7.148;2024-02-26T01:15:11;0.6;;;0.4;;
38220;SDS011;24023;51.280;7.148;2024-02-26T01:20:12;1.2;;;0.4;;
38220;SDS011;24023;51.280;7.148;2024-02-26T01:25:10;1.2;;;0.4;;
38220;SDS011;24023;51.280;7.148;2024-02-26T01:30:14;1.0;;;0.6;;
38220;SDS011;24023;51.280;7.148;2024-02-26T01:35:11;1.0;;;0.6;;
38220;SDS011;24023;51.280;7.148;2024-02-26T01:40:12;1.0;;;0.6;;
38220;SDS011;24023;51.280;7.148;2024-02-26T01:45:14;0.9;;;0.6;;
38220;SDS011;24023;51.280;7.148;2024-02-26T01:50:11;0.9;;;0.6;;
38220;SDS011;24023;51.280;7.148;2024-02-26T01:55:09;1.3;;;0.6;;
38220;SDS011;24023;51.280;7.148;2024-02-26T02:00:17;1.3;;;0.6;;
38220;SDS011;24023;51.280;7.148;2024-02-26T02:05:09;1.3;;;0.6;;
38220;SDS011;24023;51.280;7.148;2024-02-26T02:10:12;0.9;;;0.6;;
38220;SDS011;24023;51.280;7.148;2024-02-26T02:15:11;0.9;;;0.6;;
38220;SDS011;24023;51.280;7.148;2024-02-26T02:20:14;1.7;;;0.7;;
38220;SDS011;24023;51.280;7.148;2024-02-26T02:25:09;1.7;;;0.7;;
38220;SDS011;24023;51.280;7.148;2024-02-26T02:30:13;2.0;;;0.7;;
38220;SDS011;24023;51.280;7.148;2024-02-26T02:35:10;2.0;;;0.7;;
38220;SDS011;24023;51.280;7.148;2024-02-26T02:40:11;2.0;;;0.7;;
38220;SDS011;24023;51.280;7.148;2024-02-26T02:45:13;1.1;;;0.7;;
38220;SDS011;24023;51.280;7.148;2024-02-26T02:50:12;1.1;;;0.7;;
38220;SDS011;24023;51.280;7.148;2024-02-26T02:55:09;0.8;;;0.6;;
38220;SDS011;24023;51.280;7.148;2024-02-26T03:00:17;0.8;;;0.6;;
38220;SDS011;24023;51.280;7.148;2024-02-26T03:05:09;0.8;;;0.6;;
38220;SDS011;24023;51.280;7.148;2024-02-26T03:10:11;1.2;;;0.5;;
38220;SDS011;24023;51.280;7.148;2024-02-26T03:15:12;1.2;;;0.5;;
38220;SDS011;24023;51.280;7.148;2024-02-26T03:20:12;1.2;;;0.5;;
38220;SDS011;24023;51.280;7.148;2024-02-26T03:25:10;1.2;;;0.5;;
38220;SDS011;24023;51.280;7.148;2024-02-26T03:30:14;1.2;;;0.5;;
38220;SDS011;24023;51.280;7.148;2024-02-26T03:35:09;0.7;;;0.5;;
38220;SDS011;24023;51.280;7.148;2024-02-26T03:40:13;0.7;;;0.5;;
38220;SDS011;24023;51.280;7.148;2024-02-26T03:45:13;0.8;;;0.5;;
38220;SDS011;24023;51.280;7.148;2024-02-26T03:50:12;0.8;;;0.5;;
38220;SDS011;24023;51.280;7.148;2024-02-26T03:55:10;0.8;;;0.5;;
38220;SDS011;24023;51.280;7.148;2024-02-26T04:00:19;1.2;;;0.6;;
38220;SDS011;24023;51.280;7.148;2024-02-26T04:05:09;1.2;;;0.6;;
38220;SDS011;24023;51.280;7.148;2024-02-26T04:10:12;0.7;;;0.5;;
38220;SDS011;24023;51.280;7.148;2024-02-26T04:15:11;0.7;;;0.5;;
38220;SDS011;24023;51.280;7.148;2024-02-26T04:20:13;1.4;;;0.8;;
38220;SDS011;24023;51.280;7.148;2024-02-26T04:25:10;1.4;;;0.8;;
38220;SDS011;24023;51.280;7.148;2024-02-26T04:30:13;1.4;;;0.8;;
38220;SDS011;24023;51.280;7.148;2024-02-26T04:35:09;2.1;;;0.9;;
38220;SDS011;24023;51.280;7.148;2024-02-26T04:40:12;2.1;;;0.9;;
38220;SDS011;24023;51.280;7.148;2024-02-26T04:45:13;1.7;;;1.0;;
38220;SDS011;24023;51.280;7.148;2024-02-26T04:50:11;1.7;;;1.0;;
38220;SDS011;24023;51.280;7.148;2024-02-26T04:55:09;1.7;;;1.0;;
38220;SDS011;24023;51.280;7.148;2024-02-26T05:00:17;1.7;;;0.9;;
38220;SDS011;24023;51.280;7.148;2024-02-26T05:05:10;1.7;;;0.9;;
38220;SDS011;24023;51.280;7.148;2024-02-26T05:10:12;1.1;;;0.8;;
38220;SDS011;24023;51.280;7.148;2024-02-26T05:15:11;1.1;;;0.8;;
38220;SDS011;24023;51.280;7.148;2024-02-26T05:20:11;1.1;;;0.8;;
38220;SDS011;24023;51.280;7.148;2024-02-26T05:25:10;1.5;;;0.8;;
38220;SDS011;24023;51.280;7.148;2024-02-26T05:30:13;1.5;;;0.8;;
38220;SDS011;24023;51.280;7.148;2024-02-26T05:35:10;1.7;;;0.8;;
38220;SDS011;24023;51.280;7.148;2024-02-26T05:40:12;1.7;;;0.8;;
38220;SDS011;24023;51.280;7.148;2024-02-26T05:45:13;1.7;;;0.8;;
38220;SDS011;24023;51.280;7.148;2024-02-26T05:50:12;1.4;;;1.0;;
38220;SDS011;24023;51.280;7.148;2024-02-26T05:55:10;1.4;;;1.0;;
38220;SDS011;24023;51.280;7.148;2024-02-26T06:00:18;1.3;;;0.8;;
38220;SDS011;24023;51.280;7.148;2024-02-26T06:05:10;1.3;;;0.8;;
38220;SDS011;24023;51.280;7.148;2024-02-26T06:10:12;1.4;;;0.8;;
38220;SDS011;24023;51.280;7.148;2024-02-26T06:15:12;1.4;;;0.8;;
38220;SDS011;24023;51.280;7.148;2024-02-26T06:20:13;1.4;;;0.8;;
38220;SDS011;24023;51.280;7.148;2024-02-26T06:25:09;1.7;;;1.0;;
38220;SDS011;24023;51.280;7.148;2024-02-26T06:30:13;1.7;;;1.0;;
38220;SDS011;24023;51.280;7.148;2024-02-26T06:35:11;2.0;;;1.0;;
38220;SDS011;24023;51.280;7.148;2024-02-26T06:40:12;2.0;;;1.0;;
38220;SDS011;24023;51.280;7.148;2024-02-26T06:45:13;2.0;;;1.0;;
38220;SDS011;24023;51.280;7.148;2024-02-26T06:50:12;2.8;;;1.0;;
38220;SDS011;24023;51.280;7.148;2024-02-26T06:55:09;2.8;;;1.0;;
38220;SDS011;24023;51.280;7.148;2024-02-26T07:00:19;1.9;;;1.5;;
38220;SDS011;24023;51.280;7.148;2024-02-26T07:05:10;1.9;;;1.5;;
38220;SDS011;24023;51.280;7.148;2024-02-26T07:10:13;1.9;;;1.5;;
38220;SDS011;24023;51.280;7.148;2024-02-26T07:15:11;1.4;;;1.1;;
38220;SDS011;24023;51.280;7.148;2024-02-26T07:20:12;1.4;;;1.1;;
38220;SDS011;24023;51.280;7.148;2024-02-26T07:25:12;1.7;;;1.3;;
38220;SDS011;24023;51.280;7.148;2024-02-26T07:30:14;1.7;;;1.3;;
38220;SDS011;24023;51.280;7.148;2024-02-26T07:35:10;1.5;;;1.0;;
38220;SDS011;24023;51.280;7.148;2024-02-26T07:40:12;1.5;;;1.0;;
38220;SDS011;24023;51.280;7.148;2024-02-26T07:45:13;1.5;;;1.0;;
38220;SDS011;24023;51.280;7.148;2024-02-26T07:50:13;2.3;;;1.2;;
38220;SDS011;24023;51.280;7.148;2024-02-26T07:55:10;2.3;;;1.2;;
38220;SDS011;24023;51.280;7.148;2024-02-26T08:00:19;2.2;;;1.1;;
38220;SDS011;24023;51.280;7.148;2024-02-26T08:05:10;2.2;;;1.1;;
38220;SDS011;24023;51.280;7.148;2024-02-26T08:10:12;2.2;;;1.1;;
38220;SDS011;24023;51.280;7.148;2024-02-26T08:15:12;1.6;;;1.1;;
38220;SDS011;24023;51.280;7.148;2024-02-26T08:20:12;1.6;;;1.1;;
38220;SDS011;24023;51.280;7.148;2024-02-26T08:25:10;1.5;;;1.2;;
38220;SDS011;24023;51.280;7.148;2024-02-26T08:30:15;1.5;;;1.2;;
38220;SDS011;24023;51.280;7.148;2024-02-26T08:35:09;1.5;;;1.2;;
38220;SDS011;24023;51.280;7.148;2024-02-26T08:40:12;2.7;;;1.2;;
38220;SDS011;24023;51.280;7.148;2024-02-26T08:45:14;2.7;;;1.2;;
38220;SDS011;24023;51.280;7.148;2024-02-26T08:50:13;2.4;;;1.3;;
38220;SDS011;24023;51.280;7.148;2024-02-26T08:55:10;2.4;;;1.3;;
38220;SDS011;24023;51.280;7.148;2024-02-26T09:00:20;2.4;;;1.3;;
38220;SDS011;24023;51.280;7.148;2024-02-26T09:05:10;1.4;;;1.1;;
38220;SDS011;24023;51.280;7.148;2024-02-26T09:10:12;1.4;;;1.1;;
38220;SDS011;24023;51.280;7.148;2024-02-26T09:15:11;2.7;;;1.6;;
38220;SDS011;24023;51.280;7.148;2024-02-26T09:20:12;2.7;;;1.6;;
38220;SDS011;24023;51.280;7.148;2024-02-26T09:25:09;1.8;;;1.2;;
38220;SDS011;24023;51.280;7.148;2024-02-26T09:30:13;1.8;;;1.2;;
38220;SDS011;24023;51.280;7.148;2024-02-26T09:35:09;1.8;;;1.2;;
38220;SDS011;24023;51.280;7.148;2024-02-26T09:40:13;2.8;;;1.6;;
38220;SDS011;24023;51.280;7.148;2024-02-26T09:45:17;2.8;;;1.6;;
38220;SDS011;24023;51.280;7.148;2024-02-26T09:50:13;2.1;;;1.3;;
38220;SDS011;24023;51.280;7.148;2024-02-26T09:55:10;2.1;;;1.3;;
38220;SDS011;24023;51.280;7.148;2024-02-26T10:00:18;2.1;;;1.3;;
38220;SDS011;24023;51.280;7.148;2024-02-26T10:05:10;2.4;;;1.6;;
38220;SDS011;24023;51.280;7.148;2024-02-26T10:10:12;2.4;;;1.6;;
38220;SDS011;24023;51.280;7.148;2024-02-26T10:15:10;2.3;;;1.8;;
38220;SDS011;24023;51.280;7.148;2024-02-26T10:20:13;2.3;;;1.8;;
38220;SDS011;24023;51.280;7.148;2024-02-26T10:25:10;2.3;;;1.8;;
38220;SDS011;24023;51.280;7.148;2024-02-26T10:30:19;3.2;;;2.0;;
38220;SDS011;24023;51.280;7.148;2024-02-26T10:35:10;3.2;;;2.0;;
38220;SDS011;24023;51.280;7.148;2024-02-26T10:40:12;2.4;;;2.0;;
38220;SDS011;24023;51.280;7.148;2024-02-26T10:45:13;2.4;;;2.0;;
38220;SDS011;24023;51.280;7.148;2024-02-26T10:50:12;2.4;;;2.0;;
38220;SDS011;24023;51.280;7.148;2024-02-26T10:55:14;1.7;;;1.5;;
38220;SDS011;24023;51.280;7.148;2024-02-26T11:00:18;1.7;;;1.5;;
38220;SDS011;24023;51.280;7.148;2024-02-26T11:05:09;2.5;;;1.7;;
38220;SDS011;24023;51.280;7.148;2024-02-26T11:10:13;2.5;;;1.7;;
38220;SDS011;24023;51.280;7.148;2024-02-26T11:15:11;1.9;;;1.7;;
38220;SDS011;24023;51.280;7.148;2024-02-26T11:20:12;1.9;;;1.7;;
38220;SDS011;24023;51.280;7.148;2024-02-26T11:25:10;1.9;;;1.7;;
38220;SDS011;24023;51.280;7.148;2024-02-26T11:30:14;2.3;;;2.1;;
38220;SDS011;24023;51.280;7.148;2024-02-26T11:35:11;2.3;;;2.1;;
38220;SDS011;24023;51.280;7.148;2024-02-26T11:40:11;3.3;;;2.6;;
38220;SDS011;24023;51.280;7.148;2024-02-26T11:46:24;3.3;;;2.6;;
38220;SDS011;24023;51.280;7.148;2024-02-26T11:50:42;3.3;;;2.6;;
38220;SDS011;24023;51.280;7.148;2024-02-26T11:55:10;4.1;;;3.1;;
38220;SDS011;24023;51.280;7.148;2024-02-26T12:00:19;4.1;;;3.1;;
38220;SDS011;24023;51.280;7.148;2024-02-26T12:05:10;3.6;;;3.1;;
38220;SDS011;24023;51.280;7.148;2024-02-26T12:10:15;3.6;;;3.1;;
38220;SDS011;24023;51.280;7.148;2024-02-26T12:15:12;3.6;;;3.1;;
38220;SDS011;24023;51.280;7.148;2024-02-26T12:20:12;4.7;;;3.7;;
38220;SDS011;24023;51.280;7.148;2024-02-26T12:25:10;4.7;;;3.7;;
38220;SDS011;24023;51.280;7.148;2024-02-26T12:30:13;5.4;;;4.6;;
38220;SDS011;24023;51.280;7.148;2024-02-26T12:35:10;5.4;;;4.6;;
38220;SDS011;24023;51.280;7.148;2024-02-26T12:40:11;5.6;;;5.0;;
38220;SDS011;24023;51.280;7.148;2024-02-26T12:45:14;5.6;;;5.0;;
38220;SDS011;24023;51.280;7.148;2024-02-26T12:50:12;5.6;;;5.0;;
38220;SDS011;24023;51.280;7.148;2024-02-26T12:55:11;7.0;;;5.4;;
38220;SDS011;24023;51.280;7.148;2024-02-26T13:00:26;7.0;;;5.4;;
38220;SDS011;24023;51.280;7.148;2024-02-26T13:05:10;6.1;;;5.5;;
38220;SDS011;24023;51.280;7.148;2024-02-26T13:10:13;6.1;;;5.5;;
38220;SDS011;24023;51.280;7.148;2024-02-26T13:15:14;6.1;;;5.5;;
38220;SDS011;24023;51.280;7.148;2024-02-26T13:20:11;5.7;;;4.6;;
38220;SDS011;24023;51.280;7.148;2024-02-26T13:25:09;5.7;;;4.6;;
38220;SDS011;24023;51.280;7.148;2024-02-26T13:30:13;4.5;;;3.6;;
38220;SDS011;24023;51.280;7.148;2024-02-26T13:35:10;4.5;;;3.6;;
38220;SDS011;24023;51.280;7.148;2024-02-26T13:40:12;4.5;;;3.6;;
38220;SDS011;24023;51.280;7.148;2024-02-26T13:45:13;4.4;;;3.8;;
38220;SDS011;24023;51.280;7.148;2024-02-26T13:50:12;4.4;;;3.8;;
38220;SDS011;24023;51.280;7.148;2024-02-26T13:55:12;4.8;;;4.1;;
38220;SDS011;24023;51.280;7.148;2024-02-26T14:00:18;4.8;;;4.1;;
38220;SDS011;24023;51.280;7.148;2024-02-26T14:05:10;4.8;;;4.1;;
38220;SDS011;24023;51.280;7.148;2024-02-26T14:10:12;4.9;;;4.4;;
38220;SDS011;24023;51.280;7.148;2024-02-26T14:15:11;4.9;;;4.4;;
38220;SDS011;24023;51.280;7.148;2024-02-26T14:20:12;5.0;;;4.4;;
38220;SDS011;24023;51.280;7.148;2024-02-26T14:25:10;5.0;;;4.4;;
38220;SDS011;24023;51.280;7.148;2024-02-26T14:30:14;4.2;;;3.7;;
38220;SDS011;24023;51.280;7.148;2024-02-26T14:35:10;4.2;;;3.7;;
38220;SDS011;24023;51.280;7.148;2024-02-26T14:40:12;4.2;;;3.7;;
38220;SDS011;24023;51.280;7.148;2024-02-26T14:45:13;4.4;;;4.0;;
38220;SDS011;24023;51.280;7.148;2024-02-26T14:50:11;4.4;;;4.0;;
38220;SDS011;24023;51.280;7.148;2024-02-26T14:55:09;4.2;;;3.7;;
38220;SDS011;24023;51.280;7.148;2024-02-26T15:00:18;4.2;;;3.7;;
38220;SDS011;24023;51.280;7.148;2024-02-26T15:05:10;4.2;;;3.7;;
38220;SDS011;24023;51.280;7.148;2024-02-26T15:10:12;4.1;;;3.7;;
38220;SDS011;24023;51.280;7.148;2024-02-26T15:15:11;4.1;;;3.7;;
38220;SDS011;24023;51.280;7.148;2024-02-26T15:20:12;5.1;;;4.4;;
38220;SDS011;24023;51.280;7.148;2024-02-26T15:25:09;5.1;;;4.4;;
38220;SDS011;24023;51.280;7.148;2024-02-26T15:30:14;5.1;;;4.4;;
38220;SDS011;24023;51.280;7.148;2024-02-26T15:35:10;4.8;;;4.0;;
38220;SDS011;24023;51.280;7.148;2024-02-26T15:40:12;4.8;;;4.0;;
38220;SDS011;24023;51.280;7.148;2024-02-26T15:45:14;5.4;;;4.4;;
38220;SDS011;24023;51.280;7.148;2024-02-26T15:50:12;5.4;;;4.4;;
38220;SDS011;24023;51.280;7.148;2024-02-26T15:55:11;5.7;;;4.0;;
38220;SDS011;24023;51.280;7.148;2024-02-26T16:00:18;5.7;;;4.0;;
38220;SDS011;24023;51.280;7.148;2024-02-26T16:05:10;5.7;;;4.0;;
38220;SDS011;24023;51.280;7.148;2024-02-26T16:10:12;4.3;;;3.7;;
38220;SDS011;24023;51.280;7.148;2024-02-26T16:15:11;4.3;;;3.7;;
38220;SDS011;24023;51.280;7.148;2024-02-26T16:20:12;4.3;;;3.7;;
38220;SDS011;24023;51.280;7.148;2024-02-26T16:25:10;3.7;;;3.3;;
38220;SDS011;24023;51.280;7.148;2024-02-26T16:30:13;3.7;;;3.3;;
38220;SDS011;24023;51.280;7.148;2024-02-26T16:35:09;3.7;;;2.7;;
38220;SDS011;24023;51.280;7.148;2024-02-26T16:40:13;3.7;;;2.7;;
38220;SDS011;24023;51.280;7.148;2024-02-26T16:45:14;4.0;;;2.4;;
38220;SDS011;24023;51.280;7.148;2024-02-26T16:50:12;4.0;;;2.4;;
38220;SDS011;24023;51.280;7.148;2024-02-26T16:55:10;4.0;;;2.4;;
38220;SDS011;24023;51.280;7.148;2024-02-26T17:00:19;2.9;;;2.5;;
38220;SDS011;24023;51.280;7.148;2024-02-26T17:05:11;2.9;;;2.5;;
38220;SDS011;24023;51.280;7.148;2024-02-26T17:10:12;3.8;;;2.5;;
38220;SDS011;24023;51.280;7.148;2024-02-26T17:15:14;3.8;;;2.5;;
38220;SDS011;24023;51.280;7.148;2024-02-26T17:20:11;3.8;;;2.5;;
38220;SDS011;24023;51.280;7.148;2024-02-26T17:25:10;2.9;;;2.5;;
38220;SDS011;24023;51.280;7.148;2024-02-26T17:30:14;2.9;;;2.5;;
38220;SDS011;24023;51.280;7.148;2024-02-26T17:35:10;4.1;;;2.4;;
38220;SDS011;24023;51.280;7.148;2024-02-26T17:40:12;4.1;;;2.4;;
38220;SDS011;24023;51.280;7.148;2024-02-26T17:45:13;4.1;;;2.4;;
38220;SDS011;24023;51.280;7.148;2024-02-26T17:50:12;3.0;;;2.3;;
38220;SDS011;24023;51.280;7.148;2024-02-26T17:55:10;3.0;;;2.3;;
38220;SDS011;24023;51.280;7.148;2024-02-26T18:00:18;3.0;;;2.1;;
38220;SDS011;24023;51.280;7.148;2024-02-26T18:05:09;3.0;;;2.1;;
38220;SDS011;24023;51.280;7.148;2024-02-26T18:10:12;3.0;;;2.1;;
38220;SDS011;24023;51.280;7.148;2024-02-26T18:15:11;2.3;;;1.9;;
38220;SDS011;24023;51.280;7.148;2024-02-26T18:20:12;2.3;;;1.9;;
38220;SDS011;24023;51.280;7.148;2024-02-26T18:25:09;3.3;;;2.0;;
38220;SDS011;24023;51.280;7.148;2024-02-26T18:30:13;3.3;;;2.0;;
38220;SDS011;24023;51.280;7.148;2024-02-26T18:35:10;2.3;;;1.9;;
38220;SDS011;24023;51.280;7.148;2024-02-26T18:40:13;2.3;;;1.9;;
38220;SDS011;24023;51.280;7.148;2024-02-26T18:45:13;2.3;;;1.9;;
38220;SDS011;24023;51.280;7.148;2024-02-26T18:50:14;3.1;;;1.8;;
38220;SDS011;24023;51.280;7.148;2024-02-26T18:55:09;3.1;;;1.8;;
38220;SDS011;24023;51.280;7.148;2024-02-26T19:00:18;2.2;;;1.9;;
38220;SDS011;24023;51.280;7.148;2024-02-26T19:05:10;2.2;;;1.9;;
38220;SDS011;24023;51.280;7.148;2024-02-26T19:10:12;2.2;;;1.9;;
38220;SDS011;24023;51.280;7.148;2024-02-26T19:15:12;2.2;;;1.9;;
38220;SDS011;24023;51.280;7.148;2024-02-26T19:20:12;2.2;;;1.9;;
38220;SDS011;24023;51.280;7.148;2024-02-26T19:25:10;3.1;;;2.6;;
38220;SDS011;24023;51.280;7.148;2024-02-26T19:30:13;3.1;;;2.6;;
38220;SDS011;24023;51.280;7.148;2024-02-26T19:35:11;3.1;;;2.6;;
38220;SDS011;24023;51.280;7.148;2024-02-26T19:40:12;2.5;;;1.9;;
38220;SDS011;24023;51.280;7.148;2024-02-26T19:45:14;2.5;;;1.9;;
38220;SDS011;24023;51.280;7.148;2024-02-26T19:50:12;3.1;;;2.0;;
38220;SDS011;24023;51.280;7.148;2024-02-26T19:55:12;3.1;;;2.0;;
38220;SDS011;24023;51.280;7.148;2024-02-26T20:00:20;3.9;;;2.4;;
38220;SDS011;24023;51.280;7.148;2024-02-26T20:05:09;3.9;;;2.4;;
38220;SDS011;24023;51.280;7.148;2024-02-26T20:10:11;3.9;;;2.4;;
38220;SDS011;24023;51.280;7.148;2024-02-26T20:15:11;3.4;;;2.7;;
38220;SDS011;24023;51.280;7.148;2024-02-26T20:20:12;3.4;;;2.7;;
38220;SDS011;24023;51.280;7.148;2024-02-26T20:25:11;3.0;;;2.7;;
38220;SDS011;24023;51.280;7.148;2024-02-26T20:30:13;3.0;;;2.7;;
38220;SDS011;24023;51.280;7.148;2024-02-26T20:35:10;3.0;;;2.7;;
38220;SDS011;24023;51.280;7.148;2024-02-26T20:40:13;3.8;;;3.0;;
38220;SDS011;24023;51.280;7.148;2024-02-26T20:45:13;3.8;;;3.0;;
38220;SDS011;24023;51.280;7.148;2024-02-26T20:50:12;4.1;;;3.7;;
38220;SDS011;24023;51.280;7.148;2024-02-26T20:55:09;4.1;;;3.7;;
38220;SDS011;24023;51.280;7.148;2024-02-26T21:00:17;4.1;;;3.7;;
38220;SDS011;24023;51.280;7.148;2024-02-26T21:05:10;4.9;;;3.7;;
38220;SDS011;24023;51.280;7.148;2024-02-26T21:10:12;4.9;;;3.7;;
38220;SDS011;24023;51.280;7.148;2024-02-26T21:15:12;4.8;;;4.3;;
38220;SDS011;24023;51.280;7.148;2024-02-26T21:20:12;4.8;;;4.3;;
38220;SDS011;24023;51.280;7.148;2024-02-26T21:25:10;4.8;;;4.3;;
38220;SDS011;24023;51.280;7.148;2024-02-26T21:30:13;4.9;;;4.4;;
38220;SDS011;24023;51.280;7.148;2024-02-26T21:35:09;4.9;;;4.4;;
38220;SDS011;24023;51.280;7.148;2024-02-26T21:40:12;5.0;;;4.5;;
38220;SDS011;24023;51.280;7.148;2024-02-26T21:45:14;5.0;;;4.5;;
38220;SDS011;24023;51.280;7.148;2024-02-26T21:50:11;5.5;;;5.0;;
38220;SDS011;24023;51.280;7.148;2024-02-26T21:55:10;5.5;;;5.0;;
38220;SDS011;24023;51.280;7.148;2024-02-26T22:00:18;5.5;;;5.0;;
38220;SDS011;24023;51.280;7.148;2024-02-26T22:05:10;5.8;;;5.2;;
38220;SDS011;24023;51.280;7.148;2024-02-26T22:10:11;5.8;;;5.2;;
38220;SDS011;24023;51.280;7.148;2024-02-26T22:15:11;6.7;;;5.4;;
38220;SDS011;24023;51.280;7.148;2024-02-26T22:20:12;6.7;;;5.4;;
38220;SDS011;24023;51.280;7.148;2024-02-26T22:25:10;6.7;;;5.4;;
38220;SDS011;24023;51.280;7.148;2024-02-26T22:30:13;6.3;;;5.7;;
38220;SDS011;24023;51.280;7.148;2024-02-26T22:35:10;6.3;;;5.7;;
38220;SDS011;24023;51.280;7.148;2024-02-26T22:40:12;7.1;;;6.4;;
38220;SDS011;24023;51.280;7.148;2024-02-26T22:45:14;7.1;;;6.4;;
38220;SDS011;24023;51.280;7.148;2024-02-26T22:50:14;9.1;;;8.2;;
38220;SDS011;24023;51.280;7.148;2024-02-26T22:55:09;9.1;;;8.2;;
38220;SDS011;24023;51.280;7.148;2024-02-26T23:00:26;9.1;;;8.2;;
38220;SDS011;24023;51.280;7.148;2024-02-26T23:05:14;9.7;;;8.8;;
38220;SDS011;24023;51.280;7.148;2024-02-26T23:10:14;9.7;;;8.8;;
38220;SDS011;24023;51.280;7.148;2024-02-26T23:15:12;10.7;;;9.7;;
38220;SDS011;24023;51.280;7.148;2024-02-26T23:20:12;10.7;;;9.7;;
38220;SDS011;24023;51.280;7.148;2024-02-26T23:25:10;11.5;;;10.4;;
38220;SDS011;24023;51.280;7.148;2024-02-26T23:30:13;11.5;;;10.4;;
38220;SDS011;24023;51.280;7.148;2024-02-26T23:35:09;11.5;;;10.4;;
38220;SDS011;24023;51.280;7.148;2024-02-26T23:40:12;12.1;;;11.0;;
38220;SDS011;24023;51.280;7.148;2024-02-26T23:45:13;12.1;;;11.0;;
38220;SDS011;24023;51.280;7.148;2024-02-26T23:50:11;13.1;;;11.9;;
38220;SDS011;24023;51.280;7.148;2024-02-26T23:55:10;13.1;;;11.9;;
